Lake Village, AR

3:22 PM CDT on August 29, 2015 (GMT -0500)
Lake Hall Rd near Fawnwood Comm Ctr | | Change Station
CLOSE
Current Station
Personal Weather Station
Location: Lake Village, AR
Elevation: 118 ft
Nearby Weather Stations

Elev 118 ft 33.28 °N, 91.24 °W | Updated 1 minute ago

Mostly Cloudy
Mostly Cloudy
99.3 °F
Feels Like 105 °F
N
0.0
Wind Variable Wind from SSE
Gusts 2.0 mph

Today
High -- | Low -- °F
--% Chance of Precip.
Yesterday
High -- | Low -- °F
Precip. -- in
6:37 AM 7:34 PM
Full, 100% visible
Pressure 30.02 in
Visibility 9.0 miles
Clouds Mostly Cloudy 7500 ft
Overcast 9000 ft
Heat Index 105 °F
Dew Point 68 °F
Humidity 36%
Rainfall 0.00 in
Snow Depth Not available.
UV 3 out of 12
Pollen 8.10 out of 12
Air Quality Not available.
Flu Activity Not available.
METAR KGLH 291953Z AUTO 02007KT 360V060 9SM BKN075 OVC090 33/16 A3000 RMK AO2 SLP164 T03330161
Pressure 30.02 in
Visibility 9.0 miles
Clouds Mostly Cloudy 7500 ft
Overcast 9000 ft
Heat Index 105 °F
Dew Point 68 °F
Humidity 36%
Rainfall 0.00 in
Snow Depth Not available.
UV 3 out of 12
Pollen 8.10 out of 12
Air Quality Not available.
Flu Activity Not available.
METAR KGLH 291953Z AUTO 02007KT 360V060 9SM BKN075 OVC090 33/16 A3000 RMK AO2 SLP164 T03330161

10-Day Weather Forecast

×

Almanac

Astronomy

Aug. 29, 2015 Rise Set
Actual Time
Civil Twilight
Nautical Twilight
Astronomical Twilight
Moon
Length of Visible Light
Length of Day
Tomorrow will be .
, % of the Moon is Illuminated

Today's Extremes

State Highs State Lows

Community

WunderPhotos

Upload Photos

1,850,796 photos uploaded!

WunderBlogs® & News

Nearby

Air Quality

  Air Quality AQ Index Pollutant
Not available.

Snow Depth

Station Depth Elevation

Earthquake Activity

City Distance Mag. Time & Date
Minimum magnitude displayed is 2.5.

Coastal Water Temperatures

Place Temperature

Stations

Nearby Weather Stations

Station Location Temp. Windchill Dew Point Humidity Wind Precip. Elev Updated Type